Pagina principale
METAR-TAF:

METAR-TAF

Aeroporti :

Lugano, Svizzera

Aeroporto di Lugano-Agno

latitudine: 46-00N, longitudine: 008-58E, altezza: 273 m

Osservazione

Il bollettino è stato emesso 37 minuti fa, alle 00:20 UTC
Vento 3 kt da direzioni variabili
Temperature 1°C
Umidità 100%
Pressione 1000 hPa
Visibilità 10 km o più

METAR: LSZA 170020Z AUTO VRB03KT 9999 NSC 01/01 Q1000

Ora: 01:57 (00:57 UTC)

Previsione

Il bollettino è stato emesso 10 ore e 32 minuti fa, alle 14:25 UTC
Previsione valida dal 16 alle 15 UTC al 16 alle 24 UTC
Vento 5 kt da sud/sud-ovest
Visibilità 10 km o più
Poco nuvoloso ad un'altezza di 3500 ft

TAF: LSZA 161425Z 1615/1624 21005KT 9999 FEW035

Osservazioni e previsioni meteorologiche di più di 4000 aeroporti (messaggi METAR e TAF).

Le stazioni disponibili sono rappresentate dai dischi gialli e rossi sulla carta.

Puntare il mouse per vedere il nome della stazione.

Clicca sopra per visualizzare le osservazioni e previsioni meteorologiche.

Per cambiare la mappa : fare clic sui pulsanti verdi con una croce nera per ingrandire, il pulsante verde con un trattino per diminuire, o sulla freccia verde per le mappe adiacenti.


METAR-TAF: